sensor_id;sensor_type;location;lat;lon;timestamp;pressure;altitude;pressure_sealevel;temperature;humidity
5966;BME280;3009;43.224;27.976;2023-04-04T00:02:18;99780.97;;;7.92;100.00
5966;BME280;3009;43.224;27.976;2023-04-04T00:04:46;99758.84;;;7.91;100.00
5966;BME280;3009;43.224;27.976;2023-04-04T00:07:16;99760.69;;;7.91;100.00
5966;BME280;3009;43.224;27.976;2023-04-04T00:09:45;99728.50;;;7.87;100.00
5966;BME280;3009;43.224;27.976;2023-04-04T00:12:13;99713.25;;;7.88;100.00
5966;BME280;3009;43.224;27.976;2023-04-04T00:14:42;99724.44;;;7.90;100.00
5966;BME280;3009;43.224;27.976;2023-04-04T00:17:10;99730.09;;;7.88;100.00
5966;BME280;3009;43.224;27.976;2023-04-04T00:19:39;99733.38;;;7.94;100.00
5966;BME280;3009;43.224;27.976;2023-04-04T00:22:07;99714.06;;;7.88;100.00
5966;BME280;3009;43.224;27.976;2023-04-04T00:24:37;99700.88;;;7.92;100.00
5966;BME280;3009;43.224;27.976;2023-04-04T00:27:05;99697.91;;;7.93;100.00
5966;BME280;3009;43.224;27.976;2023-04-04T00:29:33;99712.34;;;7.92;100.00
5966;BME280;3009;43.224;27.976;2023-04-04T00:32:03;99699.81;;;7.93;100.00
5966;BME280;3009;43.224;27.976;2023-04-04T00:34:31;99676.88;;;7.92;100.00
5966;BME280;3009;43.224;27.976;2023-04-04T00:37:02;99688.63;;;7.91;100.00
5966;BME280;3009;43.224;27.976;2023-04-04T00:39:33;99693.50;;;7.89;100.00
5966;BME280;3009;43.224;27.976;2023-04-04T00:42:03;99662.75;;;7.91;100.00
5966;BME280;3009;43.224;27.976;2023-04-04T00:44:32;99652.06;;;7.91;100.00
5966;BME280;3009;43.224;27.976;2023-04-04T00:47:01;99666.97;;;7.92;100.00
5966;BME280;3009;43.224;27.976;2023-04-04T00:49:31;99644.06;;;7.91;100.00
5966;BME280;3009;43.224;27.976;2023-04-04T00:52:00;99634.31;;;7.95;100.00
5966;BME280;3009;43.224;27.976;2023-04-04T00:54:29;99657.88;;;7.93;100.00
5966;BME280;3009;43.224;27.976;2023-04-04T00:56:57;99649.41;;;7.91;100.00
5966;BME280;3009;43.224;27.976;2023-04-04T00:59:27;99628.66;;;7.97;100.00
5966;BME280;3009;43.224;27.976;2023-04-04T01:01:56;99629.16;;;7.99;100.00
5966;BME280;3009;43.224;27.976;2023-04-04T01:04:27;99628.50;;;7.93;100.00
5966;BME280;3009;43.224;27.976;2023-04-04T01:07:00;99621.13;;;7.90;100.00
5966;BME280;3009;43.224;27.976;2023-04-04T01:09:30;99603.72;;;7.93;100.00
5966;BME280;3009;43.224;27.976;2023-04-04T01:12:01;99614.53;;;7.96;100.00
5966;BME280;3009;43.224;27.976;2023-04-04T01:14:33;99600.41;;;7.96;100.00
5966;BME280;3009;43.224;27.976;2023-04-04T01:17:04;99597.75;;;7.96;100.00
5966;BME280;3009;43.224;27.976;2023-04-04T01:19:35;99597.44;;;7.97;100.00
5966;BME280;3009;43.224;27.976;2023-04-04T01:22:07;99585.81;;;7.93;100.00
5966;BME280;3009;43.224;27.976;2023-04-04T01:24:41;99588.47;;;7.93;100.00
5966;BME280;3009;43.224;27.976;2023-04-04T01:27:14;99594.28;;;7.95;100.00
5966;BME280;3009;43.224;27.976;2023-04-04T01:29:43;99587.06;;;7.96;100.00
5966;BME280;3009;43.224;27.976;2023-04-04T01:32:22;99583.47;;;8.01;100.00
5966;BME280;3009;43.224;27.976;2023-04-04T01:34:59;99586.59;;;8.03;100.00
5966;BME280;3009;43.224;27.976;2023-04-04T01:37:33;99584.13;;;8.06;100.00
5966;BME280;3009;43.224;27.976;2023-04-04T01:40:08;99598.88;;;8.04;100.00
5966;BME280;3009;43.224;27.976;2023-04-04T01:42:42;99573.41;;;7.97;100.00
5966;BME280;3009;43.224;27.976;2023-04-04T01:45:11;99574.81;;;7.95;100.00
5966;BME280;3009;43.224;27.976;2023-04-04T01:47:41;99567.13;;;7.93;100.00
5966;BME280;3009;43.224;27.976;2023-04-04T01:50:10;99561.63;;;7.98;100.00
5966;BME280;3009;43.224;27.976;2023-04-04T01:52:39;99569.16;;;7.96;100.00
5966;BME280;3009;43.224;27.976;2023-04-04T01:55:08;99542.47;;;7.96;100.00
5966;BME280;3009;43.224;27.976;2023-04-04T01:57:37;99517.50;;;8.01;100.00
5966;BME280;3009;43.224;27.976;2023-04-04T02:00:09;99529.47;;;8.04;100.00
5966;BME280;3009;43.224;27.976;2023-04-04T02:02:38;99504.34;;;8.05;100.00
5966;BME280;3009;43.224;27.976;2023-04-04T02:05:07;99493.81;;;8.08;100.00
5966;BME280;3009;43.224;27.976;2023-04-04T02:07:36;99490.03;;;8.01;100.00
5966;BME280;3009;43.224;27.976;2023-04-04T02:10:08;99468.38;;;8.02;100.00
5966;BME280;3009;43.224;27.976;2023-04-04T02:12:37;99469.00;;;8.08;100.00
5966;BME280;3009;43.224;27.976;2023-04-04T02:15:08;99461.63;;;8.05;100.00
5966;BME280;3009;43.224;27.976;2023-04-04T02:17:37;99453.94;;;8.03;100.00
5966;BME280;3009;43.224;27.976;2023-04-04T02:20:09;99481.56;;;8.07;100.00
5966;BME280;3009;43.224;27.976;2023-04-04T02:22:39;99446.53;;;8.09;100.00
5966;BME280;3009;43.224;27.976;2023-04-04T02:25:13;99453.47;;;8.19;100.00
5966;BME280;3009;43.224;27.976;2023-04-04T02:27:43;99444.66;;;8.18;100.00
5966;BME280;3009;43.224;27.976;2023-04-04T02:30:14;99433.34;;;8.21;100.00
5966;BME280;3009;43.224;27.976;2023-04-04T02:32:43;99441.34;;;8.21;100.00
5966;BME280;3009;43.224;27.976;2023-04-04T02:35:14;99426.28;;;8.25;100.00
5966;BME280;3009;43.224;27.976;2023-04-04T02:37:44;99436.31;;;8.28;100.00
5966;BME280;3009;43.224;27.976;2023-04-04T02:40:14;99454.88;;;8.25;100.00
5966;BME280;3009;43.224;27.976;2023-04-04T02:42:43;99431.94;;;8.24;100.00
5966;BME280;3009;43.224;27.976;2023-04-04T02:45:14;99454.25;;;8.28;100.00
5966;BME280;3009;43.224;27.976;2023-04-04T02:47:49;99416.06;;;8.27;100.00
5966;BME280;3009;43.224;27.976;2023-04-04T02:50:21;99406.16;;;8.28;100.00
5966;BME280;3009;43.224;27.976;2023-04-04T02:52:50;99417.81;;;8.32;100.00
5966;BME280;3009;43.224;27.976;2023-04-04T02:55:22;99401.59;;;8.28;100.00
5966;BME280;3009;43.224;27.976;2023-04-04T02:57:51;99392.34;;;8.26;100.00
5966;BME280;3009;43.224;27.976;2023-04-04T03:00:29;99396.13;;;8.25;100.00
5966;BME280;3009;43.224;27.976;2023-04-04T03:02:59;99429.13;;;8.29;100.00
5966;BME280;3009;43.224;27.976;2023-04-04T03:05:28;99408.53;;;8.29;100.00
5966;BME280;3009;43.224;27.976;2023-04-04T03:07:58;99416.38;;;8.34;100.00
5966;BME280;3009;43.224;27.976;2023-04-04T03:10:28;99383.69;;;8.38;100.00
5966;BME280;3009;43.224;27.976;2023-04-04T03:12:57;99382.75;;;8.33;100.00
5966;BME280;3009;43.224;27.976;2023-04-04T03:15:27;99441.66;;;8.37;100.00
5966;BME280;3009;43.224;27.976;2023-04-04T03:17:56;99396.25;;;8.37;100.00
5966;BME280;3009;43.224;27.976;2023-04-04T03:20:26;99407.41;;;8.39;100.00
5966;BME280;3009;43.224;27.976;2023-04-04T03:22:55;99397.19;;;8.41;100.00
5966;BME280;3009;43.224;27.976;2023-04-04T03:25:23;99405.38;;;8.45;100.00
5966;BME280;3009;43.224;27.976;2023-04-04T03:27:52;99383.84;;;8.41;100.00
5966;BME280;3009;43.224;27.976;2023-04-04T03:30:21;99385.91;;;8.44;100.00
5966;BME280;3009;43.224;27.976;2023-04-04T03:32:51;99380.56;;;8.44;100.00
5966;BME280;3009;43.224;27.976;2023-04-04T03:35:21;99388.25;;;8.46;100.00
5966;BME280;3009;43.224;27.976;2023-04-04T03:37:50;99398.00;;;8.50;100.00
5966;BME280;3009;43.224;27.976;2023-04-04T03:40:21;99397.06;;;8.46;100.00
5966;BME280;3009;43.224;27.976;2023-04-04T03:42:50;99385.28;;;8.47;100.00
5966;BME280;3009;43.224;27.976;2023-04-04T03:45:18;99403.34;;;8.50;100.00
5966;BME280;3009;43.224;27.976;2023-04-04T03:47:47;99418.41;;;8.55;100.00
5966;BME280;3009;43.224;27.976;2023-04-04T03:50:18;99410.53;;;8.59;100.00
5966;BME280;3009;43.224;27.976;2023-04-04T03:52:47;99396.84;;;8.60;100.00
5966;BME280;3009;43.224;27.976;2023-04-04T03:55:16;99411.78;;;8.61;100.00
5966;BME280;3009;43.224;27.976;2023-04-04T03:57:45;99381.75;;;8.64;100.00
5966;BME280;3009;43.224;27.976;2023-04-04T04:00:15;99419.50;;;8.63;100.00
5966;BME280;3009;43.224;27.976;2023-04-04T04:02:43;99393.09;;;8.61;100.00
5966;BME280;3009;43.224;27.976;2023-04-04T04:05:13;99421.06;;;8.64;100.00
5966;BME280;3009;43.224;27.976;2023-04-04T04:07:44;99406.59;;;8.65;100.00
5966;BME280;3009;43.224;27.976;2023-04-04T04:10:13;99409.25;;;8.65;100.00
5966;BME280;3009;43.224;27.976;2023-04-04T04:12:43;99425.47;;;8.68;100.00
5966;BME280;3009;43.224;27.976;2023-04-04T04:15:27;99393.41;;;8.68;100.00
5966;BME280;3009;43.224;27.976;2023-04-04T04:17:56;99398.09;;;8.72;100.00
5966;BME280;3009;43.224;27.976;2023-04-04T04:20:25;99408.63;;;8.68;100.00
5966;BME280;3009;43.224;27.976;2023-04-04T04:22:56;99427.66;;;8.66;100.00
5966;BME280;3009;43.224;27.976;2023-04-04T04:25:24;99387.88;;;8.65;100.00
5966;BME280;3009;43.224;27.976;2023-04-04T04:27:54;99360.38;;;8.64;100.00
5966;BME280;3009;43.224;27.976;2023-04-04T04:30:24;99378.91;;;8.69;100.00
5966;BME280;3009;43.224;27.976;2023-04-04T04:32:53;99359.72;;;8.76;100.00
5966;BME280;3009;43.224;27.976;2023-04-04T04:35:22;99344.63;;;8.80;100.00
5966;BME280;3009;43.224;27.976;2023-04-04T04:37:56;99330.75;;;8.87;100.00
5966;BME280;3009;43.224;27.976;2023-04-04T04:40:26;99323.13;;;8.98;100.00
5966;BME280;3009;43.224;27.976;2023-04-04T04:42:55;99323.47;;;8.96;100.00
5966;BME280;3009;43.224;27.976;2023-04-04T04:45:25;99299.72;;;8.95;100.00
5966;BME280;3009;43.224;27.976;2023-04-04T04:47:56;99314.94;;;9.03;100.00
5966;BME280;3009;43.224;27.976;2023-04-04T04:50:25;99320.63;;;9.01;100.00
5966;BME280;3009;43.224;27.976;2023-04-04T04:52:57;99314.66;;;8.96;100.00
5966;BME280;3009;43.224;27.976;2023-04-04T04:55:28;99317.47;;;8.99;100.00
5966;BME280;3009;43.224;27.976;2023-04-04T04:58:05;99337.16;;;8.95;100.00
5966;BME280;3009;43.224;27.976;2023-04-04T05:00:33;99369.56;;;8.93;100.00
5966;BME280;3009;43.224;27.976;2023-04-04T05:03:02;99367.06;;;8.88;100.00
5966;BME280;3009;43.224;27.976;2023-04-04T05:05:33;99376.84;;;8.84;100.00
5966;BME280;3009;43.224;27.976;2023-04-04T05:08:04;99357.94;;;8.89;100.00
5966;BME280;3009;43.224;27.976;2023-04-04T05:10:35;99406.03;;;8.89;100.00
5966;BME280;3009;43.224;27.976;2023-04-04T05:13:06;99417.34;;;8.95;100.00
5966;BME280;3009;43.224;27.976;2023-04-04T05:15:36;99398.16;;;9.01;100.00
5966;BME280;3009;43.224;27.976;2023-04-04T05:18:05;99412.44;;;9.05;100.00
5966;BME280;3009;43.224;27.976;2023-04-04T05:20:35;99432.28;;;9.04;100.00
5966;BME280;3009;43.224;27.976;2023-04-04T05:23:06;99424.09;;;9.01;100.00
5966;BME280;3009;43.224;27.976;2023-04-04T05:25:37;99445.66;;;8.96;100.00
5966;BME280;3009;43.224;27.976;2023-04-04T05:28:06;99440.16;;;8.92;100.00
5966;BME280;3009;43.224;27.976;2023-04-04T05:30:35;99439.25;;;8.88;100.00
5966;BME280;3009;43.224;27.976;2023-04-04T05:33:05;99451.78;;;9.05;100.00
5966;BME280;3009;43.224;27.976;2023-04-04T05:35:35;99443.13;;;8.99;100.00
5966;BME280;3009;43.224;27.976;2023-04-04T05:38:05;99442.16;;;9.04;100.00
5966;BME280;3009;43.224;27.976;2023-04-04T05:40:35;99419.34;;;9.15;100.00
5966;BME280;3009;43.224;27.976;2023-04-04T05:43:04;99428.78;;;9.13;100.00
5966;BME280;3009;43.224;27.976;2023-04-04T05:45:33;99424.09;;;9.01;100.00
5966;BME280;3009;43.224;27.976;2023-04-04T05:48:01;99421.59;;;8.96;100.00
5966;BME280;3009;43.224;27.976;2023-04-04T05:50:31;99424.41;;;8.99;100.00
5966;BME280;3009;43.224;27.976;2023-04-04T05:52:59;99419.25;;;8.94;100.00
5966;BME280;3009;43.224;27.976;2023-04-04T05:55:30;99430.75;;;8.86;100.00
5966;BME280;3009;43.224;27.976;2023-04-04T05:57:58;99432.31;;;8.87;100.00
5966;BME280;3009;43.224;27.976;2023-04-04T06:00:27;99444.28;;;8.81;100.00
5966;BME280;3009;43.224;27.976;2023-04-04T06:02:55;99441.16;;;8.79;100.00
5966;BME280;3009;43.224;27.976;2023-04-04T06:05:24;99458.75;;;8.80;100.00
5966;BME280;3009;43.224;27.976;2023-04-04T06:07:53;99443.03;;;8.69;100.00
5966;BME280;3009;43.224;27.976;2023-04-04T06:10:21;99448.25;;;8.66;100.00
5966;BME280;3009;43.224;27.976;2023-04-04T06:12:51;99424.06;;;8.71;100.00
5966;BME280;3009;43.224;27.976;2023-04-04T06:15:19;99416.50;;;8.64;100.00
5966;BME280;3009;43.224;27.976;2023-04-04T06:17:48;99418.53;;;8.67;100.00
5966;BME280;3009;43.224;27.976;2023-04-04T06:20:16;99427.81;;;8.70;100.00
5966;BME280;3009;43.224;27.976;2023-04-04T06:22:48;99422.59;;;8.74;100.00
5966;BME280;3009;43.224;27.976;2023-04-04T06:25:16;99440.03;;;8.80;100.00
5966;BME280;3009;43.224;27.976;2023-04-04T06:27:45;99442.88;;;8.83;100.00
5966;BME280;3009;43.224;27.976;2023-04-04T06:30:16;99449.13;;;8.87;100.00
5966;BME280;3009;43.224;27.976;2023-04-04T06:32:44;99459.84;;;8.87;100.00
5966;BME280;3009;43.224;27.976;2023-04-04T06:35:13;99425.41;;;8.86;100.00
5966;BME280;3009;43.224;27.976;2023-04-04T06:37:45;99430.09;;;8.89;100.00
5966;BME280;3009;43.224;27.976;2023-04-04T06:40:15;99414.88;;;8.90;100.00
5966;BME280;3009;43.224;27.976;2023-04-04T06:42:47;99410.75;;;8.92;100.00
5966;BME280;3009;43.224;27.976;2023-04-04T06:45:19;99399.44;;;8.95;100.00
5966;BME280;3009;43.224;27.976;2023-04-04T06:47:48;99384.97;;;8.87;100.00
5966;BME280;3009;43.224;27.976;2023-04-04T06:50:17;99373.66;;;8.91;100.00
5966;BME280;3009;43.224;27.976;2023-04-04T06:52:47;99354.34;;;8.85;100.00
5966;BME280;3009;43.224;27.976;2023-04-04T06:55:16;99343.00;;;8.88;100.00
5966;BME280;3009;43.224;27.976;2023-04-04T06:57:44;99347.06;;;8.94;100.00
5966;BME280;3009;43.224;27.976;2023-04-04T07:00:14;99337.00;;;9.00;100.00
5966;BME280;3009;43.224;27.976;2023-04-04T07:02:44;99323.41;;;9.05;100.00
5966;BME280;3009;43.224;27.976;2023-04-04T07:05:12;99318.72;;;9.02;100.00
5966;BME280;3009;43.224;27.976;2023-04-04T07:07:44;99330.47;;;9.10;100.00
5966;BME280;3009;43.224;27.976;2023-04-04T07:10:14;99340.56;;;9.04;100.00
5966;BME280;3009;43.224;27.976;2023-04-04T07:12:42;99362.56;;;9.10;100.00
5966;BME280;3009;43.224;27.976;2023-04-04T07:15:11;99367.63;;;9.02;100.00
5966;BME280;3009;43.224;27.976;2023-04-04T07:17:40;99343.47;;;8.90;100.00
5966;BME280;3009;43.224;27.976;2023-04-04T07:20:10;99352.78;;;8.84;100.00
5966;BME280;3009;43.224;27.976;2023-04-04T07:22:39;99341.13;;;8.89;100.00
5966;BME280;3009;43.224;27.976;2023-04-04T07:25:10;99354.38;;;8.76;100.00
5966;BME280;3009;43.224;27.976;2023-04-04T07:27:39;99330.03;;;8.69;100.00
5966;BME280;3009;43.224;27.976;2023-04-04T07:30:09;99359.41;;;8.78;100.00
5966;BME280;3009;43.224;27.976;2023-04-04T07:32:38;99341.16;;;8.80;100.00
5966;BME280;3009;43.224;27.976;2023-04-04T07:35:07;99326.78;;;8.93;100.00
5966;BME280;3009;43.224;27.976;2023-04-04T07:37:39;99323.63;;;9.00;100.00
5966;BME280;3009;43.224;27.976;2023-04-04T07:40:08;99323.09;;;9.07;100.00
5966;BME280;3009;43.224;27.976;2023-04-04T07:42:42;99315.22;;;9.31;100.00
5966;BME280;3009;43.224;27.976;2023-04-04T07:45:11;99300.81;;;9.45;100.00
5966;BME280;3009;43.224;27.976;2023-04-04T07:47:41;99292.22;;;9.18;100.00
5966;BME280;3009;43.224;27.976;2023-04-04T07:50:11;99300.75;;;9.11;100.00
5966;BME280;3009;43.224;27.976;2023-04-04T07:52:41;99334.16;;;8.96;100.00
5966;BME280;3009;43.224;27.976;2023-04-04T07:55:09;99338.41;;;8.97;100.00
5966;BME280;3009;43.224;27.976;2023-04-04T07:57:39;99344.88;;;8.87;100.00
5966;BME280;3009;43.224;27.976;2023-04-04T08:00:09;99347.06;;;8.94;100.00
5966;BME280;3009;43.224;27.976;2023-04-04T08:02:38;99317.69;;;8.85;100.00
5966;BME280;3009;43.224;27.976;2023-04-04T08:05:08;99310.94;;;8.88;100.00
5966;BME280;3009;43.224;27.976;2023-04-04T08:07:36;99301.34;;;8.87;100.00
5966;BME280;3009;43.224;27.976;2023-04-04T08:10:08;99319.81;;;9.01;100.00
5966;BME280;3009;43.224;27.976;2023-04-04T08:12:37;99289.97;;;8.99;100.00
5966;BME280;3009;43.224;27.976;2023-04-04T08:15:06;99291.84;;;8.98;100.00
5966;BME280;3009;43.224;27.976;2023-04-04T08:17:35;99312.41;;;9.07;100.00
5966;BME280;3009;43.224;27.976;2023-04-04T08:20:05;99269.16;;;9.04;100.00
5966;BME280;3009;43.224;27.976;2023-04-04T08:22:33;99286.25;;;9.12;100.00
5966;BME280;3009;43.224;27.976;2023-04-04T08:25:02;99307.34;;;9.14;100.00
5966;BME280;3009;43.224;27.976;2023-04-04T08:27:32;99299.19;;;9.31;100.00
5966;BME280;3009;43.224;27.976;2023-04-04T08:30:01;99294.56;;;9.40;100.00
5966;BME280;3009;43.224;27.976;2023-04-04T08:32:30;99309.44;;;9.50;100.00
5966;BME280;3009;43.224;27.976;2023-04-04T08:35:00;99299.94;;;9.40;100.00
5966;BME280;3009;43.224;27.976;2023-04-04T08:37:29;99306.31;;;9.48;100.00
5966;BME280;3009;43.224;27.976;2023-04-04T08:39:58;99280.66;;;9.47;100.00
5966;BME280;3009;43.224;27.976;2023-04-04T08:42:27;99280.13;;;9.54;100.00
5966;BME280;3009;43.224;27.976;2023-04-04T08:44:58;99289.44;;;9.69;100.00
5966;BME280;3009;43.224;27.976;2023-04-04T08:47:31;99306.31;;;9.69;100.00
5966;BME280;3009;43.224;27.976;2023-04-04T08:50:03;99286.59;;;9.53;100.00
5966;BME280;3009;43.224;27.976;2023-04-04T08:52:32;99291.00;;;9.91;100.00
5966;BME280;3009;43.224;27.976;2023-04-04T08:55:03;99291.63;;;9.75;100.00
5966;BME280;3009;43.224;27.976;2023-04-04T08:57:32;99273.19;;;10.07;100.00
5966;BME280;3009;43.224;27.976;2023-04-04T09:00:03;99268.47;;;10.50;100.00
5966;BME280;3009;43.224;27.976;2023-04-04T09:02:36;99291.84;;;10.50;100.00
5966;BME280;3009;43.224;27.976;2023-04-04T09:05:07;99305.22;;;10.50;100.00
5966;BME280;3009;43.224;27.976;2023-04-04T09:07:37;99319.44;;;10.29;100.00
5966;BME280;3009;43.224;27.976;2023-04-04T09:10:08;99326.53;;;10.13;100.00
5966;BME280;3009;43.224;27.976;2023-04-04T09:12:40;99310.94;;;10.15;100.00
5966;BME280;3009;43.224;27.976;2023-04-04T09:15:11;99310.22;;;10.05;100.00
5966;BME280;3009;43.224;27.976;2023-04-04T09:17:40;99340.81;;;10.38;100.00
5966;BME280;3009;43.224;27.976;2023-04-04T09:20:33;99316.09;;;10.32;100.00
5966;BME280;3009;43.224;27.976;2023-04-04T09:23:26;99315.28;;;10.65;100.00
5966;BME280;3009;43.224;27.976;2023-04-04T09:25:55;99314.28;;;10.70;100.00
5966;BME280;3009;43.224;27.976;2023-04-04T09:28:26;99305.00;;;10.67;100.00
5966;BME280;3009;43.224;27.976;2023-04-04T09:30:59;99310.69;;;10.66;100.00
5966;BME280;3009;43.224;27.976;2023-04-04T09:33:28;99326.00;;;10.90;100.00
5966;BME280;3009;43.224;27.976;2023-04-04T09:35:59;99318.19;;;10.85;100.00
5966;BME280;3009;43.224;27.976;2023-04-04T09:38:29;99324.44;;;10.64;100.00
5966;BME280;3009;43.224;27.976;2023-04-04T09:40:58;99330.38;;;10.57;100.00
5966;BME280;3009;43.224;27.976;2023-04-04T09:43:27;99317.00;;;10.24;100.00
5966;BME280;3009;43.224;27.976;2023-04-04T09:46:02;99320.66;;;10.65;100.00
5966;BME280;3009;43.224;27.976;2023-04-04T09:48:32;99323.75;;;10.55;100.00
5966;BME280;3009;43.224;27.976;2023-04-04T09:51:04;99322.97;;;10.42;100.00
5966;BME280;3009;43.224;27.976;2023-04-04T09:53:35;99317.53;;;10.75;100.00
5966;BME280;3009;43.224;27.976;2023-04-04T09:56:06;99313.63;;;10.73;100.00
5966;BME280;3009;43.224;27.976;2023-04-04T09:58:35;99311.94;;;11.05;100.00
5966;BME280;3009;43.224;27.976;2023-04-04T10:01:19;99328.59;;;10.98;100.00
5966;BME280;3009;43.224;27.976;2023-04-04T10:03:50;99312.84;;;10.97;100.00
5966;BME280;3009;43.224;27.976;2023-04-04T10:06:19;99316.50;;;11.17;100.00
5966;BME280;3009;43.224;27.976;2023-04-04T10:08:48;99321.50;;;11.43;100.00
5966;BME280;3009;43.224;27.976;2023-04-04T10:11:27;99314.72;;;11.62;100.00
5966;BME280;3009;43.224;27.976;2023-04-04T10:14:01;99305.91;;;12.50;100.00
5966;BME280;3009;43.224;27.976;2023-04-04T10:16:32;99315.56;;;12.67;100.00
5966;BME280;3009;43.224;27.976;2023-04-04T10:19:04;99311.47;;;11.97;100.00
5966;BME280;3009;43.224;27.976;2023-04-04T10:21:34;99310.78;;;11.72;100.00
5966;BME280;3009;43.224;27.976;2023-04-04T10:24:03;99312.72;;;11.59;100.00
5966;BME280;3009;43.224;27.976;2023-04-04T10:26:36;99304.47;;;11.51;100.00
5966;BME280;3009;43.224;27.976;2023-04-04T10:29:04;99315.31;;;11.43;100.00
5966;BME280;3009;43.224;27.976;2023-04-04T10:31:37;99305.41;;;11.43;100.00
5966;BME280;3009;43.224;27.976;2023-04-04T10:34:11;99302.03;;;11.46;100.00
5966;BME280;3009;43.224;27.976;2023-04-04T10:36:44;99310.94;;;11.10;100.00
5966;BME280;3009;43.224;27.976;2023-04-04T10:39:14;99310.13;;;11.09;100.00
5966;BME280;3009;43.224;27.976;2023-04-04T10:41:45;99316.63;;;11.21;100.00
5966;BME280;3009;43.224;27.976;2023-04-04T10:44:21;99324.13;;;11.03;100.00
5966;BME280;3009;43.224;27.976;2023-04-04T10:46:53;99327.81;;;11.10;100.00
5966;BME280;3009;43.224;27.976;2023-04-04T10:49:22;99327.13;;;11.13;100.00
5966;BME280;3009;43.224;27.976;2023-04-04T10:51:52;99328.59;;;10.98;100.00
5966;BME280;3009;43.224;27.976;2023-04-04T10:54:24;99333.84;;;10.82;100.00
5966;BME280;3009;43.224;27.976;2023-04-04T10:56:56;99329.81;;;10.76;100.00
5966;BME280;3009;43.224;27.976;2023-04-04T10:59:28;99327.59;;;10.66;100.00
5966;BME280;3009;43.224;27.976;2023-04-04T11:01:59;99330.13;;;10.62;100.00
5966;BME280;3009;43.224;27.976;2023-04-04T11:04:32;99327.78;;;10.61;100.00
5966;BME280;3009;43.224;27.976;2023-04-04T11:07:19;99338.03;;;10.34;100.00
5966;BME280;3009;43.224;27.976;2023-04-04T11:09:54;99338.16;;;10.50;100.00
5966;BME280;3009;43.224;27.976;2023-04-04T11:12:27;99340.06;;;10.50;100.00
5966;BME280;3009;43.224;27.976;2023-04-04T11:15:06;99336.59;;;10.16;100.00
5966;BME280;3009;43.224;27.976;2023-04-04T11:17:42;99331.94;;;10.25;100.00
5966;BME280;3009;43.224;27.976;2023-04-04T11:20:15;99331.53;;;10.35;100.00
5966;BME280;3009;43.224;27.976;2023-04-04T11:22:44;99348.63;;;10.43;100.00
5966;BME280;3009;43.224;27.976;2023-04-04T11:25:30;99326.88;;;10.44;100.00
5966;BME280;3009;43.224;27.976;2023-04-04T11:28:07;99324.94;;;10.33;100.00
5966;BME280;3009;43.224;27.976;2023-04-04T11:30:38;99332.78;;;10.38;100.00
5966;BME280;3009;43.224;27.976;2023-04-04T11:33:12;99326.31;;;10.39;100.00
5966;BME280;3009;43.224;27.976;2023-04-04T11:35:45;99323.34;;;10.65;100.00
5966;BME280;3009;43.224;27.976;2023-04-04T11:38:14;99320.88;;;11.09;100.00
5966;BME280;3009;43.224;27.976;2023-04-04T11:40:52;99324.56;;;11.05;100.00
5966;BME280;3009;43.224;27.976;2023-04-04T11:43:22;99321.09;;;11.04;100.00
5966;BME280;3009;43.224;27.976;2023-04-04T11:45:51;99307.72;;;10.79;100.00
5966;BME280;3009;43.224;27.976;2023-04-04T11:48:22;99310.59;;;10.62;100.00
5966;BME280;3009;43.224;27.976;2023-04-04T11:50:52;99312.16;;;10.63;100.00
5966;BME280;3009;43.224;27.976;2023-04-04T11:53:20;99313.03;;;10.67;100.00
5966;BME280;3009;43.224;27.976;2023-04-04T11:55:48;99304.81;;;10.72;100.00
5966;BME280;3009;43.224;27.976;2023-04-04T11:58:18;99308.69;;;10.62;100.00
5966;BME280;3009;43.224;27.976;2023-04-04T12:00:47;99310.59;;;10.74;100.00
5966;BME280;3009;43.224;27.976;2023-04-04T12:03:16;99316.19;;;10.81;100.00
5966;BME280;3009;43.224;27.976;2023-04-04T12:05:48;99300.44;;;10.68;100.00
5966;BME280;3009;43.224;27.976;2023-04-04T12:08:16;99314.38;;;10.73;100.00
5966;BME280;3009;43.224;27.976;2023-04-04T12:10:45;99326.00;;;10.90;100.00
5966;BME280;3009;43.224;27.976;2023-04-04T12:13:13;99317.75;;;10.95;100.00
5966;BME280;3009;43.224;27.976;2023-04-04T12:15:42;99319.53;;;10.91;100.00
5966;BME280;3009;43.224;27.976;2023-04-04T12:18:20;99314.63;;;11.05;100.00
5966;BME280;3009;43.224;27.976;2023-04-04T12:20:51;99330.00;;;11.33;100.00
5966;BME280;3009;43.224;27.976;2023-04-04T12:23:21;99310.25;;;11.13;100.00
5966;BME280;3009;43.224;27.976;2023-04-04T12:25:49;99305.16;;;11.48;100.00
5966;BME280;3009;43.224;27.976;2023-04-04T12:28:20;99301.91;;;11.55;100.00
5966;BME280;3009;43.224;27.976;2023-04-04T12:30:50;99302.75;;;11.59;100.00
5966;BME280;3009;43.224;27.976;2023-04-04T12:33:20;99301.72;;;11.64;100.00
5966;BME280;3009;43.224;27.976;2023-04-04T12:35:53;99300.97;;;11.63;100.00
5966;BME280;3009;43.224;27.976;2023-04-04T12:38:22;99302.47;;;11.48;100.00
5966;BME280;3009;43.224;27.976;2023-04-04T12:40:50;99296.78;;;11.78;100.00
5966;BME280;3009;43.224;27.976;2023-04-04T12:43:19;99283.19;;;12.31;100.00
5966;BME280;3009;43.224;27.976;2023-04-04T12:45:49;99273.66;;;11.89;100.00
5966;BME280;3009;43.224;27.976;2023-04-04T12:48:18;99271.88;;;11.94;100.00
5966;BME280;3009;43.224;27.976;2023-04-04T12:50:53;99260.75;;;11.79;100.00
5966;BME280;3009;43.224;27.976;2023-04-04T12:53:23;99271.22;;;11.56;100.00
5966;BME280;3009;43.224;27.976;2023-04-04T12:55:59;99265.56;;;11.74;100.00
5966;BME280;3009;43.224;27.976;2023-04-04T12:58:28;99258.75;;;12.20;100.00
5966;BME280;3009;43.224;27.976;2023-04-04T13:01:02;99261.59;;;12.44;100.00
5966;BME280;3009;43.224;27.976;2023-04-04T13:03:32;99261.75;;;12.03;100.00
5966;BME280;3009;43.224;27.976;2023-04-04T13:06:12;99263.94;;;12.45;100.00
5966;BME280;3009;43.224;27.976;2023-04-04T13:08:51;99259.63;;;12.25;100.00
5966;BME280;3009;43.224;27.976;2023-04-04T13:11:20;99262.34;;;11.96;100.00
5966;BME280;3009;43.224;27.976;2023-04-04T13:13:59;99266.19;;;12.11;100.00
5966;BME280;3009;43.224;27.976;2023-04-04T13:16:30;99263.69;;;12.34;100.00
5966;BME280;3009;43.224;27.976;2023-04-04T13:18:59;99268.22;;;12.62;100.00
5966;BME280;3009;43.224;27.976;2023-04-04T13:21:29;99256.66;;;12.30;100.00
5966;BME280;3009;43.224;27.976;2023-04-04T13:24:01;99265.94;;;12.00;100.00
5966;BME280;3009;43.224;27.976;2023-04-04T13:26:29;99269.94;;;12.38;100.00